createdAt,value
2022-11-16T00:01:41.978Z,98549.06
2022-11-16T00:04:11.912Z,98547.53
2022-11-16T00:06:39.010Z,98544.88
2022-11-16T00:09:23.788Z,98527.19
2022-11-16T00:11:52.321Z,98531.47
2022-11-16T00:14:21.569Z,98524.81
2022-11-16T00:16:48.300Z,98523.25
2022-11-16T00:19:14.872Z,98530.84
2022-11-16T00:21:41.753Z,98513.28
2022-11-16T00:24:12.119Z,98513.69
2022-11-16T00:26:38.642Z,98517.25
2022-11-16T00:29:05.134Z,98511.06
2022-11-16T00:31:31.818Z,98522.31
2022-11-16T00:33:58.350Z,98508.03
2022-11-16T00:36:24.857Z,98514.50
2022-11-16T00:38:54.523Z,98509.75
2022-11-16T00:41:21.546Z,98514.50
2022-11-16T00:43:48.147Z,98512.44
2022-11-16T00:46:14.714Z,98510.53
2022-11-16T00:48:41.251Z,98512.28
2022-11-16T00:51:07.813Z,98511.09
2022-11-16T00:53:35.689Z,98513.50
2022-11-16T00:56:02.395Z,98511.84
2022-11-16T00:58:28.902Z,98514.22
2022-11-16T01:00:55.571Z,98522.06
2022-11-16T01:03:22.141Z,98523.72
2022-11-16T01:05:48.687Z,98524.56
2022-11-16T01:08:15.240Z,98525.72
2022-11-16T01:10:41.990Z,98528.91
2022-11-16T01:13:08.531Z,98519.50
2022-11-16T01:15:35.045Z,98519.16
2022-11-16T01:18:01.535Z,98515.50
2022-11-16T01:20:29.498Z,98501.34
2022-11-16T01:22:56.450Z,98511.16
2022-11-16T01:25:22.974Z,98498.72
2022-11-16T01:27:49.524Z,98494.69
2022-11-16T01:30:16.722Z,98491.66
2022-11-16T01:32:43.296Z,98485.44
2022-11-16T01:35:14.409Z,98480.66
2022-11-16T01:37:40.948Z,98472.75
2022-11-16T01:40:08.124Z,98479.06
2022-11-16T01:42:34.735Z,98476.66
2022-11-16T01:45:04.232Z,98466.44
2022-11-16T01:47:31.245Z,98464.53
2022-11-16T01:50:09.196Z,98465.69
2022-11-16T01:52:38.730Z,98458.63
2022-11-16T01:55:06.006Z,98459.53
2022-11-16T01:57:36.409Z,98450.88
2022-11-16T02:00:07.040Z,98444.50
2022-11-16T02:02:33.698Z,98425.72
2022-11-16T02:05:01.904Z,98428.13
2022-11-16T02:07:54.351Z,98421.84
2022-11-16T02:10:30.782Z,98429.69
2022-11-16T02:13:06.125Z,98423.78
2022-11-16T02:16:26.295Z,98418.31
2022-11-16T02:19:22.650Z,98414.75
2022-11-16T02:22:14.568Z,98409.25
2022-11-16T02:24:47.335Z,98410.00
2022-11-16T02:27:35.269Z,98402.84
2022-11-16T02:30:04.126Z,98394.53
2022-11-16T02:32:44.091Z,98394.03
2022-11-16T02:35:46.706Z,98389.28
2022-11-16T02:38:21.508Z,98387.28
2022-11-16T02:40:53.908Z,98379.03
2022-11-16T02:43:30.890Z,98373.47
2022-11-16T02:46:01.624Z,98375.91
2022-11-16T02:48:35.761Z,98367.25
2022-11-16T02:51:03.854Z,98370.50
2022-11-16T02:53:37.206Z,98363.16
2022-11-16T02:56:03.819Z,98367.50
2022-11-16T02:58:30.655Z,98365.91
2022-11-16T03:01:08.608Z,98373.25
2022-11-16T03:03:47.344Z,98378.00
2022-11-16T03:06:19.170Z,98376.09
2022-11-16T03:08:56.800Z,98370.59
2022-11-16T03:11:42.462Z,98373.31
2022-11-16T03:14:14.504Z,98364.31
2022-11-16T03:16:48.864Z,98368.19
2022-11-16T03:19:22.392Z,98371.47
2022-11-16T03:21:58.130Z,98365.25
2022-11-16T03:24:25.441Z,98376.94
2022-11-16T03:26:57.863Z,98359.41
2022-11-16T03:29:31.492Z,98349.72
2022-11-16T03:32:04.191Z,98358.28
2022-11-16T03:34:35.573Z,98353.97
2022-11-16T03:37:04.200Z,98351.97
2022-11-16T03:39:36.615Z,98353.59
2022-11-16T03:42:06.921Z,98347.72
2022-11-16T03:44:35.141Z,98340.63
2022-11-16T03:47:01.974Z,98343.41
2022-11-16T03:49:31.157Z,98335.59
2022-11-16T03:51:58.337Z,98341.09
2022-11-16T03:54:25.303Z,98334.47
2022-11-16T03:56:51.890Z,98334.00
2022-11-16T03:59:18.438Z,98326.06
2022-11-16T04:01:45.152Z,98328.41
2022-11-16T04:04:31.904Z,98319.84
2022-11-16T04:07:17.096Z,98310.94
2022-11-16T04:10:02.147Z,98299.13
2022-11-16T04:12:47.502Z,98299.13
2022-11-16T04:15:32.518Z,98281.09
2022-11-16T04:18:17.438Z,98279.47
2022-11-16T04:21:04.050Z,98276.28
2022-11-16T04:23:49.362Z,98276.94
2022-11-16T04:26:16.179Z,98272.22
2022-11-16T04:28:43.213Z,98274.56
2022-11-16T04:31:28.559Z,98279.56
2022-11-16T04:34:13.780Z,98273.34
2022-11-16T04:36:58.694Z,98280.41
2022-11-16T04:39:25.287Z,98289.84
2022-11-16T04:42:10.342Z,98293.47
2022-11-16T04:44:56.042Z,98283.31
2022-11-16T04:47:22.622Z,98288.47
2022-11-16T04:49:49.205Z,98296.69
2022-11-16T04:52:15.858Z,98295.13
2022-11-16T04:54:42.390Z,98291.97
2022-11-16T04:57:09.050Z,98289.66
2022-11-16T04:59:35.544Z,98276.38
2022-11-16T05:02:08.187Z,98262.22
2022-11-16T05:04:39.309Z,98257.84
2022-11-16T05:07:11.107Z,98281.34
2022-11-16T05:09:41.463Z,98278.25
2022-11-16T05:12:14.950Z,98255.91
2022-11-16T05:14:42.900Z,98262.06
2022-11-16T05:17:10.023Z,98276.63
2022-11-16T05:19:55.390Z,98266.00
2022-11-16T05:22:22.441Z,98277.81
2022-11-16T05:24:49.039Z,98277.84
2022-11-16T05:27:17.018Z,98280.97
2022-11-16T05:29:44.187Z,98272.34
2022-11-16T05:32:12.575Z,98274.28
2022-11-16T05:34:39.650Z,98273.09
2022-11-16T05:37:06.288Z,98269.28
2022-11-16T05:39:33.820Z,98270.84
2022-11-16T05:42:00.805Z,98260.34
2022-11-16T05:44:27.349Z,98248.41
2022-11-16T05:46:55.247Z,98253.00
2022-11-16T05:49:22.007Z,98249.56
2022-11-16T05:51:49.162Z,98252.28
2022-11-16T05:54:21.192Z,98247.88
2022-11-16T05:56:49.603Z,98253.34
2022-11-16T05:59:18.842Z,98250.91
2022-11-16T06:01:46.188Z,98250.06
2022-11-16T06:04:13.878Z,98244.63
2022-11-16T06:06:40.808Z,98245.44
2022-11-16T06:09:08.607Z,98249.75
2022-11-16T06:11:36.475Z,98259.06
2022-11-16T06:14:03.483Z,98255.50
2022-11-16T06:16:30.014Z,98243.16
2022-11-16T06:18:56.701Z,98239.72
2022-11-16T06:21:23.449Z,98245.69
2022-11-16T06:23:50.033Z,98246.47
2022-11-16T06:26:17.831Z,98248.13
2022-11-16T06:28:44.861Z,98241.00
2022-11-16T06:31:11.417Z,98242.41
2022-11-16T06:33:38.076Z,98248.66
2022-11-16T06:36:05.034Z,98248.59
2022-11-16T06:38:31.868Z,98243.84
2022-11-16T06:40:59.430Z,98241.53
2022-11-16T06:43:26.463Z,98232.88
2022-11-16T06:45:56.139Z,98240.75
2022-11-16T06:48:22.759Z,98232.22
2022-11-16T06:50:50.634Z,98225.13
2022-11-16T06:53:17.729Z,98222.66
2022-11-16T06:55:44.425Z,98223.84
2022-11-16T06:58:11.218Z,98218.44
2022-11-16T07:00:39.617Z,98212.78
2022-11-16T07:03:06.227Z,98212.03
2022-11-16T07:05:33.220Z,98211.56
2022-11-16T07:07:59.801Z,98210.06
2022-11-16T07:10:26.516Z,98211.66
2022-11-16T07:12:53.063Z,98212.81
2022-11-16T07:15:19.744Z,98209.66
2022-11-16T07:17:46.270Z,98209.63
2022-11-16T07:20:13.273Z,98208.50
2022-11-16T07:22:39.946Z,98206.59
2022-11-16T07:25:07.163Z,98205.50
2022-11-16T07:27:33.741Z,98200.50
2022-11-16T07:30:02.109Z,98197.78
2022-11-16T07:32:30.852Z,98202.50
2022-11-16T07:34:59.637Z,98206.78
2022-11-16T07:37:26.908Z,98204.47
2022-11-16T07:39:53.424Z,98198.16
2022-11-16T07:42:19.974Z,98203.66
2022-11-16T07:44:46.555Z,98204.44
2022-11-16T07:47:13.034Z,98196.63
2022-11-16T07:49:39.653Z,98200.59
2022-11-16T07:52:09.711Z,98194.41
2022-11-16T07:54:36.958Z,98196.88
2022-11-16T07:57:03.614Z,98188.28
2022-11-16T07:59:31.193Z,98196.75
2022-11-16T08:01:59.270Z,98192.09
2022-11-16T08:04:26.075Z,98199.03
2022-11-16T08:06:52.740Z,98199.44
2022-11-16T08:09:19.418Z,98191.81
2022-11-16T08:11:47.150Z,98189.50
2022-11-16T08:14:14.023Z,98192.97
2022-11-16T08:16:40.566Z,98192.91
2022-11-16T08:19:07.045Z,98187.75
2022-11-16T08:21:33.692Z,98190.63
2022-11-16T08:24:02.243Z,98187.06
2022-11-16T08:26:28.893Z,98189.81
2022-11-16T08:28:56.550Z,98195.38
2022-11-16T08:31:26.078Z,98193.84
2022-11-16T08:33:52.957Z,98190.75
2022-11-16T08:36:19.877Z,98192.28
2022-11-16T08:38:48.160Z,98192.63
2022-11-16T08:41:15.983Z,98197.72
2022-11-16T08:43:42.628Z,98205.25
2022-11-16T08:46:10.463Z,98204.06
2022-11-16T08:48:38.110Z,98198.63
2022-11-16T08:51:22.522Z,98205.72
2022-11-16T08:53:50.110Z,98211.31
2022-11-16T08:56:18.662Z,98212.47
2022-11-16T08:58:51.371Z,98213.59
2022-11-16T09:01:22.889Z,98213.66
2022-11-16T09:03:50.034Z,98218.38
2022-11-16T09:06:16.975Z,98214.75
2022-11-16T09:08:44.654Z,98223.09
2022-11-16T09:11:14.055Z,98222.25
2022-11-16T09:13:40.590Z,98221.44
2022-11-16T09:16:07.452Z,98219.03
2022-11-16T09:18:34.731Z,98216.63
2022-11-16T09:21:01.547Z,98221.78
2022-11-16T09:23:28.086Z,98220.75
2022-11-16T09:25:55.422Z,98218.00
2022-11-16T09:28:22.622Z,98220.00
2022-11-16T09:30:51.258Z,98225.50
2022-11-16T09:33:18.265Z,98220.34
2022-11-16T09:35:44.921Z,98221.56
2022-11-16T09:38:19.117Z,98219.22
2022-11-16T09:40:52.075Z,98216.13
2022-11-16T09:43:45.839Z,98215.75
2022-11-16T09:46:27.321Z,98219.22
2022-11-16T09:48:58.096Z,98205.53
2022-11-16T09:51:29.556Z,98195.72
2022-11-16T09:54:14.093Z,98201.25
2022-11-16T09:56:42.414Z,98197.41
2022-11-16T09:59:12.226Z,98196.19
2022-11-16T10:01:47.953Z,98195.94
2022-11-16T10:04:38.582Z,98201.56
2022-11-16T10:07:27.529Z,98197.31
2022-11-16T10:09:56.092Z,98199.66
2022-11-16T10:12:43.780Z,98193.81
2022-11-16T10:15:37.124Z,98189.56
2022-11-16T10:18:06.504Z,98193.91
2022-11-16T10:20:51.811Z,98183.72
2022-11-16T10:23:24.254Z,98195.53
2022-11-16T10:25:58.909Z,98185.31
2022-11-16T10:28:55.820Z,98189.13
2022-11-16T10:31:51.393Z,98180.06
2022-11-16T10:34:22.811Z,98176.56
2022-11-16T10:36:49.376Z,98176.16
2022-11-16T10:39:19.166Z,98165.56
2022-11-16T10:41:53.055Z,98179.63
2022-11-16T10:44:30.139Z,98173.22
2022-11-16T10:47:19.941Z,98171.63
2022-11-16T10:50:02.240Z,98173.22
2022-11-16T10:52:28.908Z,98169.38
2022-11-16T10:54:55.405Z,98174.06
2022-11-16T10:57:23.843Z,98176.41
2022-11-16T10:59:55.431Z,98180.31
2022-11-16T11:02:24.665Z,98174.81
2022-11-16T11:05:17.141Z,98177.59
2022-11-16T11:07:48.706Z,98180.47
2022-11-16T11:10:35.335Z,98173.41
2022-11-16T11:13:04.330Z,98169.97
2022-11-16T11:15:31.246Z,98171.63
2022-11-16T11:18:24.910Z,98174.47
2022-11-16T11:21:12.348Z,98174.50
2022-11-16T11:23:46.830Z,98164.69
2022-11-16T11:26:36.188Z,98169.78
2022-11-16T11:29:16.904Z,98175.66
2022-11-16T11:31:47.192Z,98175.94
2022-11-16T11:34:21.783Z,98169.22
2022-11-16T11:36:55.661Z,98179.06
2022-11-16T11:39:22.157Z,98168.06
2022-11-16T11:42:14.804Z,98163.72
2022-11-16T11:44:52.070Z,98164.72
2022-11-16T11:50:24.767Z,98166.13
2022-11-16T11:53:11.601Z,98156.94
2022-11-16T11:55:39.666Z,98161.22
2022-11-16T11:58:15.317Z,98157.22
2022-11-16T12:01:25.049Z,98157.31
2022-11-16T12:03:58.479Z,98172.22
2022-11-16T12:06:51.028Z,98161.34
2022-11-16T12:09:29.870Z,98155.72
2022-11-16T12:12:22.395Z,98147.50
2022-11-16T12:15:12.223Z,98157.31
2022-11-16T12:17:55.659Z,98149.03
2022-11-16T12:20:45.160Z,98156.88
2022-11-16T12:23:14.701Z,98152.59
2022-11-16T12:26:06.808Z,98151.84
2022-11-16T12:28:51.235Z,98149.66
2022-11-16T12:31:27.332Z,98162.31
2022-11-16T12:34:04.973Z,98145.47
2022-11-16T12:37:02.322Z,98148.66
2022-11-16T12:39:35.755Z,98150.56
2022-11-16T12:42:20.574Z,98142.41
2022-11-16T12:45:05.466Z,98145.53
2022-11-16T12:48:01.199Z,98147.88
2022-11-16T12:50:46.574Z,98149.66
2022-11-16T12:53:34.902Z,98137.53
2022-11-16T12:56:48.888Z,98138.69
2022-11-16T12:59:44.617Z,98137.88
2022-11-16T13:02:29.505Z,98138.63
2022-11-16T13:05:12.342Z,98134.03
2022-11-16T13:08:05.459Z,98135.59
2022-11-16T13:10:36.642Z,98142.66
2022-11-16T13:13:35.404Z,98140.28
2022-11-16T13:16:02.504Z,98139.47
2022-11-16T13:18:30.142Z,98127.25
2022-11-16T13:21:18.806Z,98143.69
2022-11-16T13:24:33.664Z,98135.41
2022-11-16T13:27:12.058Z,98134.97
2022-11-16T13:29:48.255Z,98123.50
2022-11-16T13:32:37.386Z,98121.59
2022-11-16T13:35:06.567Z,98116.59
2022-11-16T13:37:39.245Z,98117.31
2022-11-16T13:40:05.675Z,98111.84
2022-11-16T13:42:43.830Z,98111.81
2022-11-16T13:45:21.961Z,98103.50
2022-11-16T13:47:51.805Z,98108.22
2022-11-16T13:50:26.487Z,98113.38
2022-11-16T13:54:10.942Z,98103.94
2022-11-16T13:55:46.787Z,98107.81
2022-11-16T13:58:21.236Z,98109.03
2022-11-16T14:01:01.813Z,98104.22
2022-11-16T14:03:31.987Z,98115.63
2022-11-16T14:05:58.783Z,98105.78
2022-11-16T14:08:35.033Z,98105.00
2022-11-16T14:11:03.334Z,98103.03
2022-11-16T14:13:48.444Z,98100.66
2022-11-16T14:16:14.882Z,98098.63
2022-11-16T14:18:42.839Z,98098.59
2022-11-16T14:21:40.214Z,98093.06
2022-11-16T14:24:09.434Z,98089.97
2022-11-16T14:26:57.918Z,98092.63
2022-11-16T14:30:01.793Z,98091.03
2022-11-16T14:32:41.248Z,98088.69
2022-11-16T14:35:25.985Z,98088.25
2022-11-16T14:38:04.641Z,98077.72
2022-11-16T14:40:42.011Z,98081.91
2022-11-16T14:43:28.082Z,98079.59
2022-11-16T14:46:04.360Z,98082.31
2022-11-16T14:48:31.340Z,98080.44
2022-11-16T14:51:13.371Z,98084.88
2022-11-16T14:53:45.604Z,98084.53
2022-11-16T14:56:14.763Z,98074.81
2022-11-16T14:59:00.639Z,98080.34
2022-11-16T15:01:38.929Z,98077.19
2022-11-16T15:04:12.228Z,98082.28
2022-11-16T15:06:45.688Z,98084.63
2022-11-16T15:09:40.534Z,98080.69
2022-11-16T15:12:33.107Z,98079.91
2022-11-16T15:15:07.323Z,98075.25
2022-11-16T15:17:34.710Z,98079.16
2022-11-16T15:20:04.650Z,98074.41
2022-11-16T15:22:39.298Z,98076.38
2022-11-16T15:25:06.264Z,98077.16
2022-11-16T15:27:38.712Z,98083.47
2022-11-16T15:30:27.402Z,98081.16
2022-11-16T15:32:54.846Z,98076.81
2022-11-16T15:35:32.944Z,98070.03
2022-11-16T15:38:11.339Z,98074.66
2022-11-16T15:40:38.069Z,98073.50
2022-11-16T15:43:06.557Z,98071.56
2022-11-16T15:45:34.081Z,98073.22
2022-11-16T15:48:03.361Z,98065.38
2022-11-16T15:50:30.292Z,98073.13
2022-11-16T15:52:59.579Z,98069.22
2022-11-16T15:55:36.194Z,98066.03
2022-11-16T15:58:26.440Z,98063.69
2022-11-16T16:00:54.632Z,98064.09
2022-11-16T16:03:26.571Z,98056.50
2022-11-16T16:05:54.576Z,98053.34
2022-11-16T16:08:34.061Z,98058.78
2022-11-16T16:11:27.671Z,98057.25
2022-11-16T16:14:02.627Z,98058.81
2022-11-16T16:16:31.857Z,98052.94
2022-11-16T16:19:06.667Z,98057.16
2022-11-16T16:21:45.751Z,98057.88
2022-11-16T16:24:38.959Z,98056.38
2022-11-16T16:27:19.658Z,98064.16
2022-11-16T16:29:47.621Z,98061.81
2022-11-16T16:32:24.570Z,98057.47
2022-11-16T16:34:53.037Z,98065.69
2022-11-16T16:37:19.996Z,98059.41
2022-11-16T16:39:46.642Z,98058.66
2022-11-16T16:42:15.905Z,98050.81
2022-11-16T16:44:44.260Z,98059.03
2022-11-16T16:47:11.284Z,98064.09
2022-11-16T16:49:38.100Z,98059.38
2022-11-16T16:52:05.701Z,98060.28
2022-11-16T16:54:32.257Z,98061.84
2022-11-16T16:57:01.365Z,98057.16
2022-11-16T16:59:29.951Z,98058.66
2022-11-16T17:01:57.589Z,98057.41
2022-11-16T17:04:24.432Z,98052.34
2022-11-16T17:06:52.846Z,98052.34
2022-11-16T17:09:19.619Z,98052.34
2022-11-16T17:11:47.431Z,98049.59
2022-11-16T17:14:13.979Z,98057.00
2022-11-16T17:16:40.520Z,98048.00
2022-11-16T17:19:07.116Z,98060.09
2022-11-16T17:21:33.621Z,98051.88
2022-11-16T17:24:00.431Z,98043.31
2022-11-16T17:26:29.615Z,98051.94
2022-11-16T17:28:57.539Z,98054.59
2022-11-16T17:31:25.779Z,98064.84
2022-11-16T17:33:52.774Z,98060.94
2022-11-16T17:36:19.746Z,98060.16
2022-11-16T17:38:46.881Z,98055.06
2022-11-16T17:41:18.739Z,98061.03
2022-11-16T17:43:46.406Z,98063.34
2022-11-16T17:46:18.705Z,98062.59
2022-11-16T17:48:47.222Z,98064.59
2022-11-16T17:51:22.043Z,98059.88
2022-11-16T17:53:49.856Z,98061.09
2022-11-16T17:56:19.099Z,98064.16
2022-11-16T17:58:46.091Z,98066.50
2022-11-16T18:01:13.888Z,98057.16
2022-11-16T18:03:40.463Z,98057.16
2022-11-16T18:06:18.807Z,98059.88
2022-11-16T18:08:45.721Z,98059.06
2022-11-16T18:11:21.074Z,98057.13
2022-11-16T18:13:48.100Z,98062.63
2022-11-16T18:16:16.025Z,98052.09
2022-11-16T18:18:43.290Z,98054.78
2022-11-16T18:21:11.964Z,98057.88
2022-11-16T18:23:40.756Z,98051.66
2022-11-16T18:26:13.749Z,98058.56
2022-11-16T18:28:41.164Z,98051.59
2022-11-16T18:31:11.258Z,98043.00
2022-11-16T18:33:39.019Z,98052.00
2022-11-16T18:36:07.473Z,98042.22
2022-11-16T18:38:34.393Z,98046.88
2022-11-16T18:41:03.880Z,98055.53
2022-11-16T18:43:30.535Z,98059.47
2022-11-16T18:45:57.038Z,98057.47
2022-11-16T18:48:23.583Z,98061.44
2022-11-16T18:50:50.118Z,98059.38
2022-11-16T18:53:16.631Z,98061.72
2022-11-16T18:55:44.192Z,98065.63
2022-11-16T18:58:23.072Z,98064.84
2022-11-16T19:01:08.819Z,98055.47
2022-11-16T19:03:35.714Z,98066.03
2022-11-16T19:06:07.753Z,98058.97
2022-11-16T19:08:35.390Z,98062.56
2022-11-16T19:11:10.133Z,98066.16
2022-11-16T19:13:37.448Z,98070.09
2022-11-16T19:16:05.070Z,98064.94
2022-11-16T19:18:31.628Z,98066.44
2022-11-16T19:21:12.889Z,98066.84
2022-11-16T19:23:42.847Z,98060.56
2022-11-16T19:26:12.210Z,98060.22
2022-11-16T19:28:40.425Z,98061.44
2022-11-16T19:31:12.612Z,98058.34
2022-11-16T19:33:40.121Z,98056.78
2022-11-16T19:36:07.642Z,98055.59
2022-11-16T19:38:34.494Z,98066.06
2022-11-16T19:41:01.624Z,98058.63
2022-11-16T19:43:28.196Z,98059.38
2022-11-16T19:45:54.778Z,98056.28
2022-11-16T19:48:21.368Z,98052.63
2022-11-16T19:50:47.911Z,98052.97
2022-11-16T19:53:14.410Z,98054.50
2022-11-16T19:55:41.877Z,98052.94
2022-11-16T19:58:08.355Z,98052.94
2022-11-16T20:00:34.977Z,98045.53
2022-11-16T20:03:01.671Z,98034.25
2022-11-16T20:05:30.053Z,98034.25
2022-11-16T20:07:56.592Z,98038.91
2022-11-16T20:10:23.084Z,98029.09
2022-11-16T20:12:49.769Z,98028.69
2022-11-16T20:15:16.455Z,98022.81
2022-11-16T20:17:42.994Z,98020.06
2022-11-16T20:20:09.807Z,98029.38
2022-11-16T20:22:36.334Z,98019.16
2022-11-16T20:25:02.909Z,98021.50
2022-11-16T20:27:29.421Z,98016.41
2022-11-16T20:29:55.974Z,98008.13
2022-11-16T20:32:23.744Z,98012.81
2022-11-16T20:34:50.290Z,98006.56
2022-11-16T20:37:17.208Z,98005.75
2022-11-16T20:39:45.964Z,98003.00
2022-11-16T20:42:13.386Z,98008.53
2022-11-16T20:44:39.913Z,98012.03
2022-11-16T20:47:06.488Z,98005.81
2022-11-16T20:49:33.038Z,98001.91
2022-11-16T20:51:59.610Z,98011.28
2022-11-16T20:54:26.329Z,98009.38
2022-11-16T20:56:52.900Z,97999.97
2022-11-16T20:59:19.675Z,98003.84
2022-11-16T21:01:48.755Z,98003.44
2022-11-16T21:04:15.560Z,98011.34
2022-11-16T21:06:42.262Z,98001.16
2022-11-16T21:09:11.795Z,98002.72
2022-11-16T21:11:56.792Z,98000.38
2022-11-16T21:14:23.437Z,97988.63
2022-11-16T21:16:49.975Z,98001.50
2022-11-16T21:19:19.654Z,98004.25
2022-11-16T21:21:48.482Z,97999.88
2022-11-16T21:24:15.391Z,97999.81
2022-11-16T21:26:41.924Z,98000.19
2022-11-16T21:29:08.702Z,97998.13
2022-11-16T21:31:36.575Z,97999.59
2022-11-16T21:34:03.731Z,97996.41
2022-11-16T21:36:32.113Z,98000.28
2022-11-16T21:38:59.107Z,97992.13
2022-11-16T21:41:26.548Z,97997.66
2022-11-16T21:43:55.054Z,97993.84
2022-11-16T21:46:24.868Z,97988.44
2022-11-16T21:48:52.898Z,97980.22
2022-11-16T21:51:21.835Z,97974.22
2022-11-16T21:53:48.870Z,97975.41
2022-11-16T21:56:20.950Z,97971.50
2022-11-16T21:58:49.811Z,97977.38
2022-11-16T22:01:16.523Z,97982.09
2022-11-16T22:03:44.697Z,97980.09
2022-11-16T22:06:34.207Z,97980.56
2022-11-16T22:09:01.432Z,97975.47
2022-11-16T22:11:28.116Z,97975.44
2022-11-16T22:13:54.618Z,97970.41
2022-11-16T22:16:23.325Z,97973.22
2022-11-16T22:18:50.341Z,97961.84
2022-11-16T22:21:16.948Z,97956.38
2022-11-16T22:23:43.488Z,97960.31
2022-11-16T22:26:12.565Z,97963.44
2022-11-16T22:28:39.439Z,97969.75
2022-11-16T22:31:14.008Z,97965.00
2022-11-16T22:33:41.810Z,97967.34
2022-11-16T22:36:10.382Z,97963.44
2022-11-16T22:38:36.992Z,97969.38
2022-11-16T22:41:03.704Z,97973.34
2022-11-16T22:43:31.127Z,97974.56
2022-11-16T22:46:02.106Z,97973.00
2022-11-16T22:48:37.771Z,97974.56
2022-11-16T22:51:05.736Z,97980.84
2022-11-16T22:53:32.914Z,97978.13
2022-11-16T22:56:04.829Z,97983.69
2022-11-16T22:58:31.373Z,97985.19
2022-11-16T23:00:58.045Z,97981.22
2022-11-16T23:03:24.649Z,97977.28
2022-11-16T23:05:51.345Z,97984.72
2022-11-16T23:08:17.920Z,97988.56
2022-11-16T23:11:04.046Z,97994.06
2022-11-16T23:13:48.897Z,97994.84
2022-11-16T23:16:15.397Z,97985.47
2022-11-16T23:18:41.909Z,97991.34
2022-11-16T23:21:27.097Z,97995.97
2022-11-16T23:24:25.662Z,97992.84
2022-11-16T23:27:10.589Z,97995.63
2022-11-16T23:29:37.143Z,97986.19
2022-11-16T23:32:03.790Z,97981.03
2022-11-16T23:34:30.315Z,97973.59
2022-11-16T23:37:02.757Z,97975.13
2022-11-16T23:39:29.378Z,97981.44
2022-11-16T23:42:14.702Z,97984.56
2022-11-16T23:44:41.744Z,97987.75
2022-11-16T23:47:08.613Z,97989.38
2022-11-16T23:49:35.199Z,97996.44
2022-11-16T23:52:01.945Z,97993.75
2022-11-16T23:54:28.440Z,97996.88
2022-11-16T23:56:54.977Z,97995.00
2022-11-16T23:59:21.485Z,97999.69
